Time;durP1;ratioP1;P1;durP2;ratioP2;P2;SDS_P1;SDS_P2;PMS_P1;PMS_P2;Temp;Humidity;BMP_temperature;BMP_pressure;BME280_temperature;BME280_humidity;BME280_pressure;Samples;Min_cycle;Max_cycle;Signal;HPM_P1;HPM_P2
2021/01/14 00:00:45;;;;;;;22.45;6.93;;;8.00;99.90;;;8.05;73.92;101651.06;4803945;29;20451;-66
2021/01/14 00:03:12;;;;;;;20.13;6.90;;;8.00;99.90;;;8.10;74.19;101657.31;4804578;29;20055;-65
2021/01/14 00:05:41;;;;;;;19.95;6.93;;;8.00;99.90;;;7.99;74.43;101663.25;4804305;29;20046;-66
2021/01/14 00:08:10;;;;;;;19.13;7.33;;;7.90;99.90;;;7.75;75.17;101657.50;4808282;29;20047;-67
2021/01/14 00:10:38;;;;;;;17.83;6.63;;;7.70;99.90;;;7.46;75.11;101627.09;4807879;29;20050;-66
2021/01/14 00:13:08;;;;;;;22.33;6.40;;;7.60;99.90;;;7.56;75.62;101661.53;4807978;29;20062;-65
2021/01/14 00:15:35;;;;;;;19.37;6.73;;;7.50;99.90;;;7.25;76.60;101664.38;4808017;29;20158;-65
2021/01/14 00:18:04;;;;;;;19.13;6.70;;;7.30;99.90;;;7.02;77.50;101662.97;4807877;29;20051;-65
2021/01/14 00:20:31;;;;;;;26.37;7.23;;;7.00;99.90;;;6.95;78.13;101655.81;4807830;29;20059;-65
2021/01/14 00:22:59;;;;;;;21.40;7.17;;;6.80;99.90;;;6.68;78.48;101652.53;4807652;29;20051;-65
2021/01/14 00:25:27;;;;;;;29.50;7.67;;;6.60;99.90;;;6.57;79.23;101651.38;4807648;29;20394;-65
2021/01/14 00:27:55;;;;;;;26.40;8.07;;;6.40;99.90;;;6.11;79.18;101537.31;4807850;29;20054;-65
2021/01/14 00:30:28;;;;;;;29.97;7.57;;;6.60;99.90;;;6.97;79.13;101648.81;4807610;29;20121;-65
2021/01/14 00:32:57;;;;;;;22.73;6.43;;;6.70;99.90;;;7.00;78.58;101639.28;4807680;29;20112;-65
2021/01/14 00:35:26;;;;;;;26.03;8.40;;;6.90;99.90;;;6.88;78.33;101614.44;4806350;29;20113;-65
2021/01/14 00:37:53;;;;;;;17.80;6.47;;;7.00;99.90;;;7.10;78.56;101657.00;4807531;29;20437;-65
2021/01/14 00:40:26;;;;;;;24.60;6.67;;;6.90;99.90;;;6.93;78.71;101642.59;4807590;29;20066;-65
2021/01/14 00:42:55;;;;;;;26.83;7.87;;;6.90;99.90;;;7.28;78.15;101659.16;4807628;29;20477;-65
2021/01/14 00:45:23;;;;;;;22.07;7.07;;;7.10;99.90;;;6.75;78.27;101630.78;4807355;29;20473;-65
2021/01/14 00:47:51;;;;;;;24.10;7.67;;;6.80;99.90;;;6.77;79.21;101656.28;4807635;29;20365;-65
2021/01/14 00:50:18;;;;;;;29.60;7.67;;;6.60;99.90;;;6.88;78.84;101664.41;4807200;29;20054;-65
2021/01/14 00:52:46;;;;;;;21.23;6.60;;;6.70;99.90;;;6.93;78.88;101668.03;4806169;29;20073;-65
2021/01/14 00:55:15;;;;;;;21.27;6.80;;;6.70;99.90;;;6.87;78.76;101670.53;4791230;29;20104;-65
2021/01/14 00:57:44;;;;;;;25.57;7.57;;;6.70;99.90;;;6.84;79.04;101673.97;4807218;29;20058;-65
2021/01/14 01:00:15;;;;;;;17.80;7.20;;;6.60;99.90;;;6.94;79.08;101685.56;4807418;29;20077;-65
2021/01/14 01:02:45;;;;;;;25.63;6.47;;;6.60;99.90;;;7.12;78.42;101680.75;4807066;29;20434;-65
2021/01/14 01:05:14;;;;;;;19.87;7.03;;;6.80;99.90;;;7.21;77.77;101683.56;4807139;29;20074;-65
2021/01/14 01:07:48;;;;;;;16.83;6.50;;;6.80;99.90;;;7.25;77.80;101682.78;4807389;29;20104;-65
2021/01/14 01:10:16;;;;;;;19.17;6.93;;;7.00;99.90;;;7.33;77.29;101681.22;4807112;29;20067;-65
2021/01/14 01:12:51;;;;;;;19.67;7.40;;;7.10;99.90;;;7.30;77.32;101689.03;4806807;29;20057;-65
2021/01/14 01:15:20;;;;;;;23.37;6.67;;;7.20;99.90;;;7.37;76.77;101690.97;4806879;29;20050;-65
2021/01/14 01:17:47;;;;;;;23.60;7.13;;;7.20;99.90;;;7.40;76.39;101671.69;4806968;29;20086;-65
2021/01/14 01:20:15;;;;;;;21.27;6.93;;;7.20;99.90;;;7.49;76.58;101688.56;4806862;29;20502;-65
2021/01/14 01:22:43;;;;;;;18.40;6.87;;;7.30;99.90;;;7.46;75.77;101692.88;4805719;29;20090;-65
2021/01/14 01:25:12;;;;;;;22.20;6.70;;;7.20;99.90;;;7.47;75.96;101692.91;4806848;29;20055;-65
2021/01/14 01:27:40;;;;;;;22.40;6.63;;;7.20;99.90;;;7.46;75.83;101685.88;4806682;29;20134;-65
2021/01/14 01:30:10;;;;;;;20.43;6.37;;;7.20;99.90;;;7.46;75.51;101691.16;4790396;29;20050;-65
2021/01/14 01:32:37;;;;;;;19.55;6.32;;;7.20;99.90;;;7.43;75.34;101692.84;4807116;29;20055;-65
2021/01/14 01:35:06;;;;;;;19.07;6.40;;;7.20;99.90;;;7.39;74.77;101691.88;4806611;29;20116;-67
2021/01/14 01:37:34;;;;;;;20.40;6.23;;;7.20;99.90;;;7.49;74.23;101704.34;4806544;29;20401;-67
2021/01/14 01:40:02;;;;;;;21.48;5.93;;;7.20;99.90;;;7.50;74.77;101707.88;4806774;29;20042;-66
2021/01/14 01:42:29;;;;;;;20.17;6.30;;;7.30;99.90;;;7.48;74.51;101702.59;4806325;29;20058;-66
2021/01/14 01:45:00;;;;;;;15.80;6.22;;;7.30;99.90;;;7.38;74.73;101705.88;4806395;29;20073;-66
2021/01/14 01:47:33;;;;;;;;;;;7.10;99.90;;;7.38;74.89;101711.13;4806959;29;20145;-67
2021/01/14 01:50:04;;;;;;;18.03;5.83;;;7.10;99.90;;;7.53;75.02;101716.72;4806404;29;19929;-66
2021/01/14 01:52:34;;;;;;;18.23;6.30;;;7.20;99.90;;;7.64;74.82;101723.13;4806317;29;20096;-65
2021/01/14 01:55:04;;;;;;;19.08;5.82;;;7.40;99.90;;;7.12;71.08;101720.22;4806139;29;20416;-65
2021/01/14 01:57:32;;;;;;;16.75;6.97;;;7.20;99.90;;;6.82;72.22;101727.34;4806473;29;20059;-65
2021/01/14 01:59:59;;;;;;;15.63;5.67;;;6.80;99.90;;;6.99;71.07;101708.50;4806200;29;20059;-65
2021/01/14 02:02:30;;;;;;;13.60;5.27;;;6.90;99.90;;;7.36;70.63;101733.00;4805769;29;20067;-66
2021/01/14 02:04:58;;;;;;;16.23;6.32;;;7.10;99.90;;;7.48;70.69;101733.28;4806059;29;20043;-65
2021/01/14 02:07:37;;;;;;;15.30;5.73;;;7.30;99.90;;;7.42;69.80;101739.31;4804690;29;20059;-65
2021/01/14 02:10:14;;;;;;;14.33;6.10;;;7.30;99.90;;;7.55;68.83;101745.75;4806174;29;20128;-66
2021/01/14 02:12:54;;;;;;;14.77;6.03;;;7.40;99.90;;;7.50;67.81;101742.09;4804674;29;20069;-65
2021/01/14 02:15:23;;;;;;;15.13;5.65;;;7.40;99.90;;;7.53;67.69;101750.09;4805948;29;20066;-65
2021/01/14 02:17:53;;;;;;;13.90;5.77;;;7.40;99.90;;;7.44;67.65;101749.84;4805735;29;20062;-65
2021/01/14 02:20:22;;;;;;;14.93;6.18;;;7.30;99.90;;;7.29;67.25;101718.84;4805829;29;20111;-65
2021/01/14 02:22:59;;;;;;;16.40;5.93;;;7.30;99.90;;;7.45;67.98;101722.69;4805831;29;20074;-65
2021/01/14 02:25:32;;;;;;;14.63;6.20;;;7.40;99.90;;;7.70;67.61;101751.34;4805756;29;20054;-66
2021/01/14 02:28:03;;;;;;;12.93;5.07;;;7.50;99.90;;;7.74;67.88;101748.78;4805496;29;20053;-65
2021/01/14 02:30:31;;;;;;;15.65;6.10;;;7.60;99.90;;;7.78;67.20;101741.84;4804932;29;20062;-66
2021/01/14 02:32:58;;;;;;;14.93;5.83;;;7.50;99.90;;;7.86;66.73;101745.50;4789367;29;20062;-65
2021/01/14 02:35:26;;;;;;;14.07;4.97;;;7.60;99.90;;;7.93;66.36;101752.69;4805535;29;20092;-65
2021/01/14 02:37:53;;;;;;;18.10;6.47;;;7.70;99.90;;;7.89;67.00;101751.75;4805535;29;20125;-65
2021/01/14 02:40:20;;;;;;;15.30;6.03;;;7.70;99.90;;;7.95;67.08;101746.63;4805233;29;20099;-65
2021/01/14 02:42:48;;;;;;;15.57;5.95;;;7.70;99.90;;;7.90;66.09;101723.66;4788971;29;20058;-65
2021/01/14 02:45:16;;;;;;;15.57;5.85;;;7.80;99.90;;;7.97;66.57;101741.38;4789257;29;20051;-65
2021/01/14 02:47:45;;;;;;;13.23;5.75;;;7.80;99.90;;;7.86;66.40;101735.88;4805324;29;20219;-66
2021/01/14 02:50:13;;;;;;;11.00;5.80;;;7.70;99.90;;;7.94;66.25;101747.44;4805425;29;20062;-65
2021/01/14 02:52:43;;;;;;;14.82;6.07;;;7.70;99.90;;;7.91;66.16;101739.50;4805233;29;20435;-65
2021/01/14 02:55:13;;;;;;;14.23;6.20;;;7.70;99.90;;;7.96;65.95;101745.75;4803883;29;20054;-66
2021/01/14 02:57:45;;;;;;;12.13;5.40;;;7.70;99.90;;;7.99;65.39;101742.28;4805149;29;20422;-65
2021/01/14 03:00:14;;;;;;;14.20;6.13;;;7.70;99.90;;;7.97;64.79;101744.91;4805011;29;20546;-66
2021/01/14 03:02:42;;;;;;;18.00;5.88;;;7.80;99.90;;;7.90;64.84;101749.97;4805130;29;20065;-64
2021/01/14 03:05:10;;;;;;;11.73;5.13;;;7.70;99.90;;;7.79;65.07;101759.41;4804980;29;20055;-65
2021/01/14 03:07:38;;;;;;;9.68;4.85;;;7.60;99.90;;;7.72;65.67;101747.88;4804939;29;20502;-66
2021/01/14 03:10:07;;;;;;;15.80;6.00;;;7.50;99.90;;;7.71;65.52;101750.47;4804961;29;20141;-66
2021/01/14 03:12:36;;;;;;;16.67;5.57;;;7.40;99.90;;;7.65;66.35;101751.22;4803701;29;20047;-66
2021/01/14 03:15:05;;;;;;;10.88;5.07;;;7.40;99.90;;;7.63;66.38;101752.94;4805302;29;20050;-66
2021/01/14 03:17:36;;;;;;;13.13;5.53;;;7.40;99.90;;;7.51;66.31;101747.41;4804708;29;20506;-66
2021/01/14 03:20:08;;;;;;;11.10;5.40;;;7.30;99.90;;;7.56;66.75;101744.88;4788556;29;20111;-66
2021/01/14 03:22:39;;;;;;;15.17;5.37;;;7.30;99.90;;;7.50;67.10;101753.53;4803382;29;20075;-66
2021/01/14 03:25:10;;;;;;;11.93;6.47;;;7.30;99.90;;;7.52;66.39;101748.28;4804806;29;20050;-66
2021/01/14 03:27:39;;;;;;;11.27;5.90;;;7.30;99.90;;;7.47;66.90;101750.81;4804826;29;20076;-67
2021/01/14 03:30:09;;;;;;;12.43;6.23;;;7.30;99.90;;;7.50;66.96;101740.38;4804583;29;20148;-67
2021/01/14 03:32:36;;;;;;;15.63;5.90;;;7.30;99.90;;;7.48;66.43;101751.72;4804887;29;20055;-67
2021/01/14 03:35:06;;;;;;;15.97;5.30;;;7.20;99.90;;;7.50;66.28;101750.91;4804460;29;20058;-66
2021/01/14 03:37:38;;;;;;;13.52;4.85;;;7.20;99.90;;;7.49;66.59;101749.09;4804619;29;20513;-67
2021/01/14 03:40:10;;;;;;;12.80;5.20;;;7.30;99.90;;;7.47;66.29;101748.19;4804458;29;20146;-66
2021/01/14 03:42:38;;;;;;;14.03;6.17;;;7.20;99.90;;;7.47;66.00;101747.31;4804262;29;20505;-66
2021/01/14 03:45:07;;;;;;;11.90;5.27;;;7.30;99.90;;;7.46;66.33;101743.78;4804400;29;20522;-66
2021/01/14 03:47:35;;;;;;;17.77;5.63;;;7.20;99.90;;;7.47;66.23;101747.31;4804265;29;20435;-66
2021/01/14 03:50:08;;;;;;;9.55;4.65;;;7.20;99.90;;;7.43;66.82;101746.38;4804432;29;20545;-66
2021/01/14 03:52:35;;;;;;;15.52;5.63;;;7.30;99.90;;;7.56;67.37;101752.78;4804342;29;20055;-66
2021/01/14 03:55:04;;;;;;;9.23;5.43;;;7.40;99.90;;;7.60;67.27;101747.63;4804241;29;20134;-67
2021/01/14 03:57:36;;;;;;;11.13;5.60;;;7.40;99.90;;;7.67;67.06;101738.97;4804222;29;20051;-66
2021/01/14 04:00:08;;;;;;;14.30;5.00;;;7.50;99.90;;;7.63;66.00;101737.13;4802798;29;20058;-67
2021/01/14 04:02:41;;;;;;;11.60;4.97;;;7.40;99.90;;;7.32;65.72;101739.94;4787995;29;20070;-66
2021/01/14 04:05:12;;;;;;;16.53;5.70;;;7.20;99.90;;;7.30;65.32;101739.91;4804171;29;20505;-67
2021/01/14 04:07:40;;;;;;;13.20;5.73;;;7.10;99.90;;;7.14;64.90;101739.56;4804326;29;20058;-66
2021/01/14 04:10:08;;;;;;;11.20;5.87;;;7.00;99.90;;;6.97;64.95;101751.38;4787880;29;20096;-66
2021/01/14 04:12:35;;;;;;;13.13;5.30;;;6.80;99.90;;;7.03;64.92;101751.53;4804070;29;20047;-66
2021/01/14 04:15:04;;;;;;;12.80;5.13;;;6.80;99.90;;;6.92;64.90;101753.91;4804318;29;20054;-66
2021/01/14 04:17:31;;;;;;;16.63;6.10;;;6.70;99.90;;;6.88;64.99;101759.97;4804087;29;20382;-66
2021/01/14 04:19:59;;;;;;;13.77;5.73;;;6.70;99.90;;;6.93;64.82;101760.09;4804401;29;20578;-66
2021/01/14 04:22:28;;;;;;;12.80;6.13;;;6.70;99.90;;;6.82;64.91;101756.28;4804044;29;20127;-66
2021/01/14 04:25:02;;;;;;;23.37;6.80;;;6.60;99.90;;;6.75;64.91;101755.25;4803959;29;20058;-66
2021/01/14 04:27:30;;;;;;;17.27;6.13;;;6.50;99.90;;;6.78;64.80;101759.69;4804162;29;20439;-66
2021/01/14 04:29:57;;;;;;;10.93;5.33;;;6.60;99.90;;;6.86;64.63;101766.03;4804157;29;20108;-66
2021/01/14 04:32:25;;;;;;;12.57;5.73;;;6.60;99.90;;;6.95;64.71;101764.50;4804142;29;20122;-66
2021/01/14 04:34:58;;;;;;;13.30;5.27;;;6.70;99.90;;;6.96;64.33;101765.41;4804144;29;20047;-66
2021/01/14 04:37:26;;;;;;;9.13;5.33;;;6.70;99.90;;;6.89;64.66;101789.78;4803880;29;20063;-66
2021/01/14 04:39:54;;;;;;;10.73;5.43;;;6.60;99.90;;;6.86;64.30;101756.41;4802772;29;20086;-66
2021/01/14 04:42:29;;;;;;;17.50;6.30;;;6.60;99.90;;;6.91;64.53;101760.03;4804034;29;20047;-65
2021/01/14 04:44:57;;;;;;;19.10;6.13;;;6.60;99.90;;;6.87;64.89;101767.81;4804141;29;20054;-66
2021/01/14 04:47:27;;;;;;;15.30;6.30;;;6.60;99.90;;;6.86;65.10;101763.38;4803775;29;20475;-66
2021/01/14 04:49:58;;;;;;;19.33;5.47;;;6.60;99.90;;;6.89;65.01;101766.97;4804136;29;20058;-66
2021/01/14 04:52:30;;;;;;;10.23;5.27;;;6.60;99.90;;;6.98;65.00;101763.69;4803854;29;20080;-66
2021/01/14 04:55:02;;;;;;;12.73;5.30;;;6.70;99.90;;;7.11;64.94;101771.03;4807174;29;20390;-66
2021/01/14 04:57:30;;;;;;;10.10;5.40;;;6.80;99.90;;;7.16;65.91;101777.31;4807057;29;20062;-66
2021/01/14 05:00:03;;;;;;;9.90;5.13;;;7.00;99.90;;;7.04;65.38;101737.56;4805825;29;20111;-66
2021/01/14 05:02:43;;;;;;;14.83;5.77;;;7.00;99.90;;;7.32;65.34;101775.94;4807224;29;20575;-66
2021/01/14 05:05:13;;;;;;;11.90;4.63;;;7.10;99.90;;;7.38;65.88;101778.66;4807077;29;20131;-66
2021/01/14 05:07:54;;;;;;;8.88;5.05;;;7.20;99.90;;;7.39;66.42;101784.00;4805892;29;20501;-65
2021/01/14 05:10:23;;;;;;;14.60;5.10;;;7.10;99.90;;;7.42;66.29;101783.16;4805706;29;20059;-61
2021/01/14 05:12:55;;;;;;;11.43;5.43;;;7.20;99.90;;;7.40;66.09;101779.59;4806905;29;20097;-62
2021/01/14 05:15:25;;;;;;;11.23;5.40;;;7.20;99.90;;;7.44;66.15;101787.59;4806911;29;20055;-62
2021/01/14 05:17:54;;;;;;;12.15;5.18;;;7.20;99.90;;;7.35;66.26;101774.25;4806963;29;20111;-64
2021/01/14 05:20:22;;;;;;;17.07;6.00;;;7.20;99.90;;;7.43;66.20;101790.22;4805496;29;20062;-63
2021/01/14 05:22:57;;;;;;;15.87;6.00;;;7.30;99.90;;;7.44;66.11;101789.34;4806579;29;20059;-63
2021/01/14 05:25:25;;;;;;;9.73;5.70;;;7.30;99.90;;;7.49;66.03;101800.88;4806533;29;20070;-64
2021/01/14 05:27:53;;;;;;;13.27;5.87;;;7.30;99.90;;;7.48;66.08;101799.97;4805330;29;20062;-62
2021/01/14 05:30:22;;;;;;;10.60;5.27;;;7.30;99.90;;;7.46;66.39;101806.06;4806560;29;20150;-63
2021/01/14 05:32:50;;;;;;;10.13;6.20;;;7.30;99.90;;;7.14;66.42;101789.53;4806850;29;20054;-62
2021/01/14 05:35:29;;;;;;;10.97;5.70;;;7.20;99.90;;;7.30;67.12;101802.19;4805382;29;20062;-62
2021/01/14 05:38:03;;;;;;;10.10;5.60;;;7.10;99.90;;;7.27;67.56;101802.13;4806813;29;20059;-62
2021/01/14 05:40:31;;;;;;;14.13;5.53;;;7.10;99.90;;;7.20;68.20;101797.56;4806645;29;20085;-61
2021/01/14 05:43:05;;;;;;;12.87;5.77;;;7.00;99.90;;;7.19;68.36;101791.41;4806727;29;20074;-61
2021/01/14 05:45:33;;;;;;;10.67;5.27;;;6.90;99.90;;;7.20;68.37;101792.31;4806724;29;20059;-61
2021/01/14 05:48:08;;;;;;;9.43;5.80;;;6.90;99.90;;;7.06;68.55;101793.72;4805162;29;20051;-63
2021/01/14 05:50:44;;;;;;;10.57;5.50;;;6.90;99.90;;;7.08;68.52;101789.38;4805184;29;20063;-62
2021/01/14 05:53:17;;;;;;;14.77;6.40;;;6.90;99.90;;;7.13;68.52;101788.63;4806220;29;20066;-62
2021/01/14 05:55:46;;;;;;;17.03;5.63;;;6.90;99.90;;;6.90;68.48;101754.72;4806196;29;20046;-61
2021/01/14 05:58:18;;;;;;;11.47;5.33;;;6.90;99.90;;;6.90;68.48;101765.25;4789997;29;20054;-62
2021/01/14 06:00:47;;;;;;;15.27;5.67;;;6.80;99.90;;;7.01;68.84;101775.19;4806060;29;20059;-61
2021/01/14 06:03:28;;;;;;;17.17;5.87;;;6.80;99.90;;;7.00;68.45;101778.69;4805826;29;20097;-61
2021/01/14 06:05:57;;;;;;;11.73;5.83;;;6.80;99.90;;;6.99;68.25;101781.25;4805820;29;20083;-61
2021/01/14 06:08:28;;;;;;;14.00;5.83;;;6.70;99.90;;;6.99;68.28;101779.50;4806099;29;20065;-61
2021/01/14 06:10:56;;;;;;;10.52;5.05;;;6.60;99.90;;;6.90;68.64;101779.28;4805895;29;20053;-61
2021/01/14 06:13:39;;;;;;;11.40;6.17;;;6.60;99.90;;;6.73;68.58;101753.44;4805909;29;20062;-62
2021/01/14 06:16:08;;;;;;;10.93;6.00;;;6.60;99.90;;;6.86;68.77;101784.44;4804969;29;20124;-62
2021/01/14 06:18:36;;;;;;;11.20;5.73;;;6.60;99.90;;;6.78;69.32;101780.72;4806160;29;20501;-61
2021/01/14 06:21:04;;;;;;;10.23;5.73;;;6.60;99.90;;;6.82;69.39;101787.81;4805840;29;20058;-61
2021/01/14 06:23:46;;;;;;;14.90;5.47;;;6.60;99.90;;;6.75;69.15;101754.34;4805796;29;20069;-61
2021/01/14 06:26:27;;;;;;;15.87;6.10;;;6.70;99.90;;;6.93;69.02;101778.50;4805706;29;20054;-62
2021/01/14 06:28:56;;;;;;;14.57;6.00;;;6.70;99.90;;;6.88;69.15;101786.25;4805673;29;20059;-63
2021/01/14 06:31:27;;;;;;;15.03;6.30;;;6.70;99.90;;;6.90;69.06;101792.44;4805882;29;20087;-62
2021/01/14 06:33:55;;;;;;;9.37;5.60;;;6.70;99.90;;;6.93;68.83;101789.88;4805620;29;20707;-63
2021/01/14 06:36:33;;;;;;;10.67;6.00;;;6.70;99.90;;;7.05;67.47;101784.94;4805603;29;20153;-62
2021/01/14 06:39:12;;;;;;;9.23;6.23;;;6.80;99.90;;;7.06;66.88;101786.72;4805690;29;20063;-63
2021/01/14 06:41:42;;;;;;;13.40;6.23;;;6.90;99.90;;;7.04;66.72;101791.06;4804348;29;20081;-63
2021/01/14 06:44:12;;;;;;;14.20;6.15;;;6.90;99.90;;;7.05;66.16;101784.94;4805779;29;20055;-63
2021/01/14 06:46:40;;;;;;;9.77;6.28;;;6.90;99.90;;;7.03;65.54;101799.78;4804323;29;20069;-63
2021/01/14 06:49:13;;;;;;;15.57;6.27;;;6.90;99.90;;;7.07;65.47;101798.09;4805394;29;20051;-62
2021/01/14 06:51:56;;;;;;;12.90;5.70;;;6.90;99.90;;;7.11;65.04;101805.22;4805334;29;20047;-63
2021/01/14 06:54:26;;;;;;;13.07;6.13;;;7.00;99.90;;;7.20;64.77;101808.09;4805283;29;20058;-63
2021/01/14 06:57:00;;;;;;;12.82;5.82;;;7.00;99.90;;;7.03;64.89;101783.09;4804012;29;20050;-62
2021/01/14 06:59:27;;;;;;;9.17;5.27;;;7.00;99.90;;;7.16;64.62;101806.25;4805222;29;20081;-62
2021/01/14 07:02:53;;;;;;;12.27;5.97;;;7.00;99.90;;;7.09;64.51;101805.19;4805172;29;20128;-62
2021/01/14 07:05:36;;;;;;;13.60;5.80;;;7.00;99.90;;;7.06;64.42;101804.22;4805095;29;20486;-63
2021/01/14 07:08:29;;;;;;;19.70;6.30;;;7.00;99.90;;;6.74;64.70;101800.78;4804116;29;20112;-62
2021/01/14 07:11:17;;;;;;;13.93;5.73;;;6.80;99.90;;;6.55;64.83;101798.53;4805454;29;20055;-61
2021/01/14 07:13:47;;;;;;;12.40;5.80;;;6.60;99.90;;;6.62;64.77;101796.97;4805320;29;20558;-62
2021/01/14 07:16:16;;;;;;;14.30;6.50;;;6.60;99.90;;;6.22;64.80;101788.00;4804904;29;20043;-62
2021/01/14 07:18:44;;;;;;;15.47;5.73;;;6.40;99.90;;;6.15;65.02;101785.16;4805135;29;20077;-61
2021/01/14 07:21:34;;;;;;;15.10;6.00;;;6.20;99.90;;;6.02;65.43;101798.78;4805321;29;20046;-61
2021/01/14 07:24:12;;;;;;;10.27;5.40;;;6.10;99.90;;;5.86;65.02;101802.72;4805160;29;20062;-61
2021/01/14 07:26:43;;;;;;;12.17;6.10;;;5.90;99.90;;;5.82;65.77;101806.06;4804963;29;20107;-62
2021/01/14 07:29:12;;;;;;;13.30;5.60;;;5.80;99.90;;;5.79;65.80;101794.56;4805129;29;20460;-61
2021/01/14 07:31:51;;;;;;;14.13;6.37;;;5.70;99.90;;;5.98;65.67;101812.69;4804963;29;20042;-61
2021/01/14 07:34:39;;;;;;;17.73;5.50;;;5.80;99.90;;;5.89;65.52;101794.91;4788624;29;20051;-61
2021/01/14 07:37:09;;;;;;;17.97;6.30;;;5.90;99.90;;;5.99;65.09;101817.06;4804836;29;20566;-61
2021/01/14 07:39:50;;;;;;;10.48;6.10;;;5.90;99.90;;;5.95;65.62;101815.19;4805005;29;20051;-62
2021/01/14 07:42:24;;;;;;;7.93;5.60;;;5.90;99.90;;;6.01;65.40;101824.16;4804964;29;20493;-61
2021/01/14 07:44:54;;;;;;;9.67;5.27;;;5.90;99.90;;;5.93;65.84;101832.63;4804869;29;20065;-61
2021/01/14 07:47:30;;;;;;;12.50;6.78;;;5.90;99.90;;;5.68;66.26;101810.00;4804798;29;20043;-61
2021/01/14 07:49:59;;;;;;;14.17;5.67;;;5.80;99.90;;;5.55;66.72;101836.69;4788581;29;20051;-62
2021/01/14 07:52:32;;;;;;;9.97;5.00;;;5.60;99.90;;;5.25;67.66;101825.22;4804898;29;20463;-63
2021/01/14 07:55:02;;;;;;;8.20;5.10;;;5.30;99.90;;;5.26;68.40;101837.50;4804693;29;20051;-60
2021/01/14 07:57:40;;;;;;;9.85;6.18;;;5.30;99.90;;;5.25;68.66;101834.00;4804730;29;20047;-60
2021/01/14 08:00:10;;;;;;;8.73;5.67;;;5.20;99.90;;;4.89;68.34;101746.28;4788448;29;20455;-61
2021/01/14 08:03:10;;;;;;;13.48;6.15;;;5.40;99.90;;;5.23;69.16;101848.78;4804214;29;20062;-61
2021/01/14 08:05:56;;;;;;;14.23;5.93;;;5.20;99.90;;;5.09;69.54;101850.03;4804423;29;20055;-60
2021/01/14 08:08:34;;;;;;;21.67;8.30;;;5.20;99.90;;;4.86;70.79;101851.00;4804583;29;20101;-60
2021/01/14 08:11:15;;;;;;;16.03;8.13;;;4.80;99.90;;;4.88;70.44;101851.09;4804440;29;20054;-62
2021/01/14 08:14:26;;;;;;;17.67;7.90;;;4.80;99.90;;;4.71;70.95;101852.19;4804483;29;20120;-62
2021/01/14 08:16:54;;;;;;;18.63;8.30;;;4.80;99.90;;;4.71;71.20;101846.97;4804116;29;20077;-61
2021/01/14 08:19:33;;;;;;;18.20;8.33;;;4.70;99.90;;;4.93;71.75;101862.59;4804355;29;20050;-61
2021/01/14 08:22:07;;;;;;;18.20;8.27;;;4.80;99.90;;;4.79;71.83;101850.75;4804427;29;20054;-61
2021/01/14 08:24:51;;;;;;;18.83;9.90;;;4.70;99.90;;;4.60;71.73;101825.66;4804371;29;20051;-61
2021/01/14 08:27:29;;;;;;;21.33;10.20;;;4.70;99.90;;;4.89;72.07;101855.47;4805049;29;20051;-63
2021/01/14 08:30:00;;;;;;;19.30;9.03;;;4.80;99.90;;;4.57;71.99;101854.34;4807912;29;20055;-62
2021/01/14 08:32:40;;;;;;;18.57;7.80;;;4.70;99.90;;;4.57;71.78;101823.81;4806619;29;20047;-61
2021/01/14 08:35:29;;;;;;;17.93;7.60;;;4.70;99.90;;;4.63;71.80;101845.84;4807698;29;20054;-62
2021/01/14 08:37:58;;;;;;;15.37;6.33;;;4.70;99.90;;;4.71;71.80;101860.06;4806584;29;20104;-61
2021/01/14 08:40:32;;;;;;;18.27;6.80;;;4.70;99.90;;;4.59;71.43;101869.28;4807743;29;20074;-61
2021/01/14 08:43:06;;;;;;;14.60;6.53;;;4.60;99.90;;;4.37;72.33;101851.03;4807785;29;20332;-62
2021/01/14 08:45:41;;;;;;;15.90;6.53;;;4.50;99.90;;;4.49;71.49;101861.94;4807439;29;20072;-61
2021/01/14 08:48:11;;;;;;;17.23;6.90;;;4.50;99.90;;;4.30;71.74;101862.09;4807520;29;20506;-62
2021/01/14 08:50:41;;;;;;;17.93;7.20;;;4.40;99.90;;;4.27;72.46;101856.78;4806263;29;20078;-62
2021/01/14 08:53:11;;;;;;;12.45;7.15;;;4.30;99.90;;;4.27;72.25;101862.00;4791204;29;20308;-61
2021/01/14 08:55:39;;;;;;;10.32;6.63;;;4.30;99.90;;;4.14;72.22;101874.59;4807473;29;20506;-61
2021/01/14 08:58:08;;;;;;;21.17;7.30;;;4.20;99.90;;;4.22;73.19;101862.69;4807236;29;20121;-62
2021/01/14 09:00:37;;;;;;;13.50;6.63;;;4.10;99.90;;;4.02;72.49;101832.25;4807465;29;20059;-61
2021/01/14 09:03:06;;;;;;;10.50;6.03;;;4.30;99.90;;;4.15;72.17;101879.88;4807133;29;20128;-61
2021/01/14 09:05:43;;;;;;;14.53;5.97;;;4.20;99.90;;;4.08;72.20;101879.59;4807275;29;20463;-62
2021/01/14 09:08:13;;;;;;;13.50;6.73;;;4.10;99.90;;;4.01;72.58;101882.78;4790823;29;20059;-61
2021/01/14 09:10:47;;;;;;;11.27;6.10;;;4.00;99.90;;;4.12;72.42;101877.13;4807223;29;20051;-62
2021/01/14 09:13:17;;;;;;;11.20;6.47;;;4.10;99.90;;;4.13;72.61;101881.53;4807178;29;20347;-62
2021/01/14 09:15:47;;;;;;;13.98;6.35;;;4.10;99.90;;;4.28;72.56;101883.81;4807037;29;20054;-62
2021/01/14 09:18:15;;;;;;;14.53;6.80;;;4.20;99.90;;;3.95;73.11;101861.66;4807017;29;20055;-62
2021/01/14 09:20:51;;;;;;;11.43;6.90;;;4.10;99.90;;;4.08;72.89;101872.63;4807100;29;20066;-62
2021/01/14 09:23:25;;;;;;;16.17;6.67;;;4.10;99.90;;;3.99;73.36;101856.56;4806896;29;20059;-62
2021/01/14 09:25:55;;;;;;;10.13;5.90;;;4.00;99.90;;;4.01;73.26;101882.78;4806800;29;20051;-62
2021/01/14 09:28:25;;;;;;;13.90;7.22;;;4.00;99.90;;;3.87;73.59;101878.78;4806764;29;20058;-62
2021/01/14 09:31:04;;;;;;;15.63;6.75;;;3.90;99.90;;;3.87;73.45;101878.78;4806902;29;20059;-61
2021/01/14 09:33:34;;;;;;;18.57;6.80;;;3.90;99.90;;;3.93;72.92;101873.78;4806741;29;20566;-62
2021/01/14 09:36:11;;;;;;;15.85;6.28;;;4.00;99.90;;;3.83;72.51;101877.78;4806639;29;20064;-62
2021/01/14 09:38:46;;;;;;;15.97;6.57;;;3.90;99.90;;;3.80;73.03;101881.97;4806828;29;20502;-65
2021/01/14 09:41:23;;;;;;;11.97;6.63;;;3.90;99.90;;;3.65;73.20;101866.56;4806761;29;20119;-66
2021/01/14 09:43:55;;;;;;;18.50;6.63;;;3.80;99.90;;;3.73;72.50;101896.56;4806510;29;20406;-62
2021/01/14 09:46:26;;;;;;;11.77;6.50;;;3.80;99.90;;;3.77;73.70;101880.16;4806299;29;20058;-61
2021/01/14 09:49:00;;;;;;;13.77;6.67;;;3.80;99.90;;;3.90;73.17;101898.09;4806583;29;20061;-61
2021/01/14 09:51:28;;;;;;;12.73;6.03;;;3.90;99.90;;;3.93;73.21;101894.72;4806451;29;20051;-61
2021/01/14 09:53:56;;;;;;;13.97;6.70;;;3.90;99.90;;;3.73;72.19;101879.94;4806314;29;20054;-61
2021/01/14 09:56:31;;;;;;;14.30;6.27;;;3.80;99.90;;;3.97;73.12;101891.38;4806514;29;20089;-61
2021/01/14 09:59:03;;;;;;;15.67;6.50;;;3.90;99.90;;;3.80;72.35;101892.44;4806315;29;20076;-61
2021/01/14 10:01:36;;;;;;;13.23;6.00;;;3.80;99.90;;;3.85;72.07;101886.56;4806008;29;20108;-61
2021/01/14 10:04:09;;;;;;;18.87;7.33;;;3.90;99.90;;;3.88;71.47;101904.09;4806370;29;20103;-61
2021/01/14 10:06:43;;;;;;;18.73;6.97;;;3.90;99.90;;;3.89;71.12;101898.91;4806093;29;20058;-61
2021/01/14 10:09:12;;;;;;;10.70;5.83;;;3.90;99.90;;;4.05;71.99;101901.28;4806028;29;20047;-61
2021/01/14 10:11:44;;;;;;;18.07;6.27;;;4.00;99.90;;;3.80;71.87;101898.56;4806238;29;20463;-61
2021/01/14 10:14:18;;;;;;;15.37;6.17;;;3.80;99.90;;;3.88;71.34;101886.69;4805903;29;20055;-62
2021/01/14 10:16:48;;;;;;;15.07;5.90;;;3.90;99.90;;;3.89;70.57;101872.75;4805996;29;20062;-61
2021/01/14 10:19:18;;;;;;;10.37;6.10;;;4.00;99.90;;;3.80;71.07;101885.47;4805791;29;20107;-60
2021/01/14 10:21:47;;;;;;;18.10;6.43;;;3.90;99.90;;;3.73;70.11;101886.09;4805715;29;20466;-60
2021/01/14 10:24:21;;;;;;;11.10;6.20;;;3.70;99.90;;;3.69;70.34;101886.78;4805729;29;20054;-60
2021/01/14 10:26:49;;;;;;;14.90;6.47;;;3.70;99.90;;;3.81;71.18;101875.91;4805845;29;20059;-60
2021/01/14 10:29:31;;;;;;;8.00;6.47;;;3.80;99.90;;;3.77;69.70;101887.09;4805894;29;20153;-60
2021/01/14 10:32:06;;;;;;;12.23;6.30;;;3.80;99.90;;;3.67;69.72;101884.13;4805888;29;20598;-61
2021/01/14 10:34:42;;;;;;;14.47;7.47;;;3.70;99.90;;;3.76;69.94;101885.28;4789562;29;20062;-61
2021/01/14 10:37:24;;;;;;;11.00;5.67;;;3.70;99.90;;;3.79;69.83;101886.34;4805905;29;20049;-61
2021/01/14 10:39:53;;;;;;;14.83;6.83;;;3.80;99.90;;;3.81;70.35;101878.53;4805711;29;20047;-61